sensor_id;sensor_type;location;lat;lon;timestamp;temperature;humidity
13375;DHT22;6756;51.354;15.754;2023-02-22T00:02:19;5.90;99.90
13375;DHT22;6756;51.354;15.754;2023-02-22T00:06:26;5.90;99.90
13375;DHT22;6756;51.354;15.754;2023-02-22T00:10:27;5.90;99.90
13375;DHT22;6756;51.354;15.754;2023-02-22T00:14:28;5.90;99.90
13375;DHT22;6756;51.354;15.754;2023-02-22T00:18:29;5.90;99.90
13375;DHT22;6756;51.354;15.754;2023-02-22T00:22:30;5.90;99.90
13375;DHT22;6756;51.354;15.754;2023-02-22T00:26:32;5.90;99.90
13375;DHT22;6756;51.354;15.754;2023-02-22T00:30:33;5.90;99.90
13375;DHT22;6756;51.354;15.754;2023-02-22T00:34:34;5.90;99.90
13375;DHT22;6756;51.354;15.754;2023-02-22T00:38:35;5.90;99.90
13375;DHT22;6756;51.354;15.754;2023-02-22T00:42:36;5.80;99.90
13375;DHT22;6756;51.354;15.754;2023-02-22T00:46:37;5.80;99.90
13375;DHT22;6756;51.354;15.754;2023-02-22T00:50:38;5.70;99.90
13375;DHT22;6756;51.354;15.754;2023-02-22T00:54:39;5.60;99.90
13375;DHT22;6756;51.354;15.754;2023-02-22T00:58:39;5.50;99.90
13375;DHT22;6756;51.354;15.754;2023-02-22T01:02:42;5.40;99.90
13375;DHT22;6756;51.354;15.754;2023-02-22T01:06:43;5.30;99.90
13375;DHT22;6756;51.354;15.754;2023-02-22T01:10:44;5.30;99.90
13375;DHT22;6756;51.354;15.754;2023-02-22T01:14:46;5.30;99.90
13375;DHT22;6756;51.354;15.754;2023-02-22T01:18:47;5.30;99.90
13375;DHT22;6756;51.354;15.754;2023-02-22T01:22:49;5.30;99.90
13375;DHT22;6756;51.354;15.754;2023-02-22T01:26:51;5.30;99.90
13375;DHT22;6756;51.354;15.754;2023-02-22T01:30:52;5.40;99.90
13375;DHT22;6756;51.354;15.754;2023-02-22T01:34:55;5.40;99.90
13375;DHT22;6756;51.354;15.754;2023-02-22T01:38:56;5.40;99.90
13375;DHT22;6756;51.354;15.754;2023-02-22T01:43:13;5.40;99.90
13375;DHT22;6756;51.354;15.754;2023-02-22T01:47:15;5.50;99.90
13375;DHT22;6756;51.354;15.754;2023-02-22T01:51:23;5.50;99.90
13375;DHT22;6756;51.354;15.754;2023-02-22T01:55:25;5.50;99.90
13375;DHT22;6756;51.354;15.754;2023-02-22T01:59:28;5.50;99.90
13375;DHT22;6756;51.354;15.754;2023-02-22T02:03:34;5.40;99.90
13375;DHT22;6756;51.354;15.754;2023-02-22T02:07:37;5.40;99.90
13375;DHT22;6756;51.354;15.754;2023-02-22T02:11:39;5.40;99.90
13375;DHT22;6756;51.354;15.754;2023-02-22T02:15:41;5.40;99.90
13375;DHT22;6756;51.354;15.754;2023-02-22T02:36:26;5.30;99.90
13375;DHT22;6756;51.354;15.754;2023-02-22T02:45:15;5.30;99.90
13375;DHT22;6756;51.354;15.754;2023-02-22T02:49:26;5.30;99.90
13375;DHT22;6756;51.354;15.754;2023-02-22T02:53:36;5.30;99.90
13375;DHT22;6756;51.354;15.754;2023-02-22T02:57:38;5.30;99.90
13375;DHT22;6756;51.354;15.754;2023-02-22T03:22:58;4.80;99.90
13375;DHT22;6756;51.354;15.754;2023-02-22T03:27:07;4.70;99.90
13375;DHT22;6756;51.354;15.754;2023-02-22T03:31:18;4.70;99.90
13375;DHT22;6756;51.354;15.754;2023-02-22T03:35:25;4.60;99.90
13375;DHT22;6756;51.354;15.754;2023-02-22T03:39:27;4.60;99.90
13375;DHT22;6756;51.354;15.754;2023-02-22T03:43:35;4.70;99.90
13375;DHT22;6756;51.354;15.754;2023-02-22T03:47:46;4.70;99.90
13375;DHT22;6756;51.354;15.754;2023-02-22T03:51:50;4.80;99.90
13375;DHT22;6756;51.354;15.754;2023-02-22T03:55:53;4.80;99.90
13375;DHT22;6756;51.354;15.754;2023-02-22T03:59:55;4.90;99.90
13375;DHT22;6756;51.354;15.754;2023-02-22T04:03:56;4.90;99.90
13375;DHT22;6756;51.354;15.754;2023-02-22T04:07:57;4.90;99.90
13375;DHT22;6756;51.354;15.754;2023-02-22T04:11:58;4.90;99.90
13375;DHT22;6756;51.354;15.754;2023-02-22T04:15:59;4.90;99.90
13375;DHT22;6756;51.354;15.754;2023-02-22T04:20:00;4.90;99.90
13375;DHT22;6756;51.354;15.754;2023-02-22T04:24:00;5.00;99.90
13375;DHT22;6756;51.354;15.754;2023-02-22T04:28:01;5.00;99.90
13375;DHT22;6756;51.354;15.754;2023-02-22T04:32:02;5.00;99.90
13375;DHT22;6756;51.354;15.754;2023-02-22T04:36:04;5.00;99.90
13375;DHT22;6756;51.354;15.754;2023-02-22T04:40:05;5.10;99.90
13375;DHT22;6756;51.354;15.754;2023-02-22T04:44:07;5.10;99.90
13375;DHT22;6756;51.354;15.754;2023-02-22T04:48:08;5.10;99.90
13375;DHT22;6756;51.354;15.754;2023-02-22T04:52:08;5.10;99.90
13375;DHT22;6756;51.354;15.754;2023-02-22T04:56:09;5.10;99.90
13375;DHT22;6756;51.354;15.754;2023-02-22T05:00:14;5.10;99.90
13375;DHT22;6756;51.354;15.754;2023-02-22T05:04:15;5.10;99.90
13375;DHT22;6756;51.354;15.754;2023-02-22T05:08:16;5.10;99.90
13375;DHT22;6756;51.354;15.754;2023-02-22T05:12:17;5.10;99.90
13375;DHT22;6756;51.354;15.754;2023-02-22T05:16:18;5.10;99.90
13375;DHT22;6756;51.354;15.754;2023-02-22T05:20:48;5.20;99.90
13375;DHT22;6756;51.354;15.754;2023-02-22T05:24:49;5.20;99.90
13375;DHT22;6756;51.354;15.754;2023-02-22T05:28:51;5.20;99.90
13375;DHT22;6756;51.354;15.754;2023-02-22T05:32:52;5.20;99.90
13375;DHT22;6756;51.354;15.754;2023-02-22T05:36:53;5.20;99.90
13375;DHT22;6756;51.354;15.754;2023-02-22T05:40:54;5.20;99.90
13375;DHT22;6756;51.354;15.754;2023-02-22T05:44:56;5.20;99.90
13375;DHT22;6756;51.354;15.754;2023-02-22T05:48:57;5.20;99.90
13375;DHT22;6756;51.354;15.754;2023-02-22T05:52:58;5.20;99.90
13375;DHT22;6756;51.354;15.754;2023-02-22T05:56:58;5.20;99.90
13375;DHT22;6756;51.354;15.754;2023-02-22T06:00:59;5.20;99.90
13375;DHT22;6756;51.354;15.754;2023-02-22T06:05:00;5.20;99.90
13375;DHT22;6756;51.354;15.754;2023-02-22T06:09:01;5.20;99.90
13375;DHT22;6756;51.354;15.754;2023-02-22T06:13:03;5.30;99.90
13375;DHT22;6756;51.354;15.754;2023-02-22T06:17:04;5.30;99.90
13375;DHT22;6756;51.354;15.754;2023-02-22T06:21:07;5.40;99.90
13375;DHT22;6756;51.354;15.754;2023-02-22T06:25:09;5.40;99.90
13375;DHT22;6756;51.354;15.754;2023-02-22T06:29:10;5.50;99.90
13375;DHT22;6756;51.354;15.754;2023-02-22T06:33:11;5.60;99.90
13375;DHT22;6756;51.354;15.754;2023-02-22T06:37:12;5.60;99.90
13375;DHT22;6756;51.354;15.754;2023-02-22T06:41:12;5.70;99.90
13375;DHT22;6756;51.354;15.754;2023-02-22T06:45:16;5.80;99.90
13375;DHT22;6756;51.354;15.754;2023-02-22T06:49:19;5.80;99.90
13375;DHT22;6756;51.354;15.754;2023-02-22T06:53:20;5.90;99.90
13375;DHT22;6756;51.354;15.754;2023-02-22T06:57:20;6.00;99.90
13375;DHT22;6756;51.354;15.754;2023-02-22T07:01:21;6.10;99.90
13375;DHT22;6756;51.354;15.754;2023-02-22T07:05:24;6.20;99.90
13375;DHT22;6756;51.354;15.754;2023-02-22T07:09:25;6.20;99.90
13375;DHT22;6756;51.354;15.754;2023-02-22T07:13:26;6.30;99.90
13375;DHT22;6756;51.354;15.754;2023-02-22T07:17:26;6.50;99.90
13375;DHT22;6756;51.354;15.754;2023-02-22T07:21:28;6.70;99.90
13375;DHT22;6756;51.354;15.754;2023-02-22T07:25:29;6.70;99.90
13375;DHT22;6756;51.354;15.754;2023-02-22T07:29:30;6.80;99.90
13375;DHT22;6756;51.354;15.754;2023-02-22T07:33:31;6.90;99.90
13375;DHT22;6756;51.354;15.754;2023-02-22T07:37:32;7.00;99.90
13375;DHT22;6756;51.354;15.754;2023-02-22T07:41:33;7.10;99.90
13375;DHT22;6756;51.354;15.754;2023-02-22T07:45:34;7.20;99.90
13375;DHT22;6756;51.354;15.754;2023-02-22T07:49:35;7.30;99.90
13375;DHT22;6756;51.354;15.754;2023-02-22T07:53:36;7.50;99.90
13375;DHT22;6756;51.354;15.754;2023-02-22T07:57:37;7.60;99.90
13375;DHT22;6756;51.354;15.754;2023-02-22T08:01:38;7.80;99.90
13375;DHT22;6756;51.354;15.754;2023-02-22T08:05:40;8.00;99.90
13375;DHT22;6756;51.354;15.754;2023-02-22T08:09:41;8.10;99.90
13375;DHT22;6756;51.354;15.754;2023-02-22T08:13:42;8.20;99.90
13375;DHT22;6756;51.354;15.754;2023-02-22T08:17:43;8.40;99.90
13375;DHT22;6756;51.354;15.754;2023-02-22T08:21:44;8.30;99.90
13375;DHT22;6756;51.354;15.754;2023-02-22T08:25:44;8.40;99.90
13375;DHT22;6756;51.354;15.754;2023-02-22T08:29:46;8.50;99.90
13375;DHT22;6756;51.354;15.754;2023-02-22T08:33:48;8.60;99.90
13375;DHT22;6756;51.354;15.754;2023-02-22T08:37:51;8.80;99.90
13375;DHT22;6756;51.354;15.754;2023-02-22T08:41:53;9.00;99.90
13375;DHT22;6756;51.354;15.754;2023-02-22T08:45:53;9.10;99.90
13375;DHT22;6756;51.354;15.754;2023-02-22T08:49:54;9.20;3.10
13375;DHT22;6756;51.354;15.754;2023-02-22T08:53:55;9.30;1.00
13375;DHT22;6756;51.354;15.754;2023-02-22T08:57:57;9.30;1.00
13375;DHT22;6756;51.354;15.754;2023-02-22T09:01:58;9.20;1.00
13375;DHT22;6756;51.354;15.754;2023-02-22T09:05:59;9.20;1.00
13375;DHT22;6756;51.354;15.754;2023-02-22T09:10:00;9.20;99.90
13375;DHT22;6756;51.354;15.754;2023-02-22T09:14:01;9.20;99.90
13375;DHT22;6756;51.354;15.754;2023-02-22T09:18:03;9.30;99.90
13375;DHT22;6756;51.354;15.754;2023-02-22T09:22:04;9.30;99.90
13375;DHT22;6756;51.354;15.754;2023-02-22T09:26:07;9.40;99.90
13375;DHT22;6756;51.354;15.754;2023-02-22T09:30:22;9.50;99.90
13375;DHT22;6756;51.354;15.754;2023-02-22T09:34:23;9.60;99.90
13375;DHT22;6756;51.354;15.754;2023-02-22T09:38:28;9.70;99.90
13375;DHT22;6756;51.354;15.754;2023-02-22T09:42:36;9.90;99.90
13375;DHT22;6756;51.354;15.754;2023-02-22T09:46:40;10.00;99.90
13375;DHT22;6756;51.354;15.754;2023-02-22T09:50:46;9.70;99.90
13375;DHT22;6756;51.354;15.754;2023-02-22T09:55:11;9.70;99.90
13375;DHT22;6756;51.354;15.754;2023-02-22T09:59:22;9.90;99.90
13375;DHT22;6756;51.354;15.754;2023-02-22T10:03:31;10.00;99.90
13375;DHT22;6756;51.354;15.754;2023-02-22T10:07:48;10.10;99.90
13375;DHT22;6756;51.354;15.754;2023-02-22T10:12:31;10.30;99.90
13375;DHT22;6756;51.354;15.754;2023-02-22T10:16:42;10.50;99.90
13375;DHT22;6756;51.354;15.754;2023-02-22T10:25:20;10.80;59.90
13375;DHT22;6756;51.354;15.754;2023-02-22T10:33:39;10.80;56.80
13375;DHT22;6756;51.354;15.754;2023-02-22T10:37:42;10.90;45.00
13375;DHT22;6756;51.354;15.754;2023-02-22T10:41:51;11.00;22.50
13375;DHT22;6756;51.354;15.754;2023-02-22T10:45:57;10.60;16.00
13375;DHT22;6756;51.354;15.754;2023-02-22T10:50:00;10.50;24.00
13375;DHT22;6756;51.354;15.754;2023-02-22T10:58:14;11.00;12.30
13375;DHT22;6756;51.354;15.754;2023-02-22T11:02:31;11.20;9.70
13375;DHT22;6756;51.354;15.754;2023-02-22T11:06:33;11.50;1.00
13375;DHT22;6756;51.354;15.754;2023-02-22T11:10:35;11.60;1.00
13375;DHT22;6756;51.354;15.754;2023-02-22T11:14:38;11.20;1.00
13375;DHT22;6756;51.354;15.754;2023-02-22T11:18:39;11.20;1.00
13375;DHT22;6756;51.354;15.754;2023-02-22T11:22:41;11.20;1.00
13375;DHT22;6756;51.354;15.754;2023-02-22T11:26:48;11.30;1.00
13375;DHT22;6756;51.354;15.754;2023-02-22T11:30:50;11.40;1.00
13375;DHT22;6756;51.354;15.754;2023-02-22T11:34:51;11.50;1.00
13375;DHT22;6756;51.354;15.754;2023-02-22T11:38:54;11.50;1.00
13375;DHT22;6756;51.354;15.754;2023-02-22T11:43:15;11.30;1.00
13375;DHT22;6756;51.354;15.754;2023-02-22T11:47:16;11.20;1.00
13375;DHT22;6756;51.354;15.754;2023-02-22T11:51:51;11.30;1.00
13375;DHT22;6756;51.354;15.754;2023-02-22T12:00:50;11.30;1.00
13375;DHT22;6756;51.354;15.754;2023-02-22T12:09:18;11.70;1.00
13375;DHT22;6756;51.354;15.754;2023-02-22T12:21:50;11.70;1.00
13375;DHT22;6756;51.354;15.754;2023-02-22T12:30:43;11.80;1.00
13375;DHT22;6756;51.354;15.754;2023-02-22T12:34:54;11.90;1.00
13375;DHT22;6756;51.354;15.754;2023-02-22T12:39:02;12.10;1.00
13375;DHT22;6756;51.354;15.754;2023-02-22T12:43:18;12.20;1.00
13375;DHT22;6756;51.354;15.754;2023-02-22T12:47:29;12.30;1.00
13375;DHT22;6756;51.354;15.754;2023-02-22T12:51:44;12.40;1.00
13375;DHT22;6756;51.354;15.754;2023-02-22T12:56:15;12.20;1.00
13375;DHT22;6756;51.354;15.754;2023-02-22T13:00:32;11.90;1.00
13375;DHT22;6756;51.354;15.754;2023-02-22T13:04:34;11.60;1.00
13375;DHT22;6756;51.354;15.754;2023-02-22T13:13:35;12.00;1.00
13375;DHT22;6756;51.354;15.754;2023-02-22T13:22:09;12.00;1.00
13375;DHT22;6756;51.354;15.754;2023-02-22T13:51:51;11.20;1.00
13375;DHT22;6756;51.354;15.754;2023-02-22T13:55:57;11.30;1.00
13375;DHT22;6756;51.354;15.754;2023-02-22T14:00:20;11.30;1.00
13375;DHT22;6756;51.354;15.754;2023-02-22T14:16:36;11.30;1.00
13375;DHT22;6756;51.354;15.754;2023-02-22T14:20:37;11.20;1.00
13375;DHT22;6756;51.354;15.754;2023-02-22T14:24:45;11.10;1.00
13375;DHT22;6756;51.354;15.754;2023-02-22T14:32:50;10.90;1.00
13375;DHT22;6756;51.354;15.754;2023-02-22T14:36:57;10.90;1.00
13375;DHT22;6756;51.354;15.754;2023-02-22T14:41:01;10.90;7.40
13375;DHT22;6756;51.354;15.754;2023-02-22T14:49:13;10.80;4.40
13375;DHT22;6756;51.354;15.754;2023-02-22T14:53:26;10.70;7.90
13375;DHT22;6756;51.354;15.754;2023-02-22T14:57:50;10.60;14.20
13375;DHT22;6756;51.354;15.754;2023-02-22T15:02:10;10.50;19.00
13375;DHT22;6756;51.354;15.754;2023-02-22T15:06:20;10.50;28.10
13375;DHT22;6756;51.354;15.754;2023-02-22T15:10:25;10.50;24.40
13375;DHT22;6756;51.354;15.754;2023-02-22T15:14:26;10.40;17.50
13375;DHT22;6756;51.354;15.754;2023-02-22T15:18:53;10.30;24.70
13375;DHT22;6756;51.354;15.754;2023-02-22T15:22:58;10.20;35.20
13375;DHT22;6756;51.354;15.754;2023-02-22T15:27:12;10.10;37.20
13375;DHT22;6756;51.354;15.754;2023-02-22T15:31:24;10.00;44.80
13375;DHT22;6756;51.354;15.754;2023-02-22T15:35:27;9.80;92.90
13375;DHT22;6756;51.354;15.754;2023-02-22T15:39:30;9.60;99.90
13375;DHT22;6756;51.354;15.754;2023-02-22T15:43:33;9.40;99.90
13375;DHT22;6756;51.354;15.754;2023-02-22T15:47:34;9.20;99.90
13375;DHT22;6756;51.354;15.754;2023-02-22T15:51:38;9.10;99.90
13375;DHT22;6756;51.354;15.754;2023-02-22T15:55:42;8.90;99.90
13375;DHT22;6756;51.354;15.754;2023-02-22T15:59:49;8.90;99.90
13375;DHT22;6756;51.354;15.754;2023-02-22T16:03:55;8.80;99.90
13375;DHT22;6756;51.354;15.754;2023-02-22T16:07:57;8.70;99.90
13375;DHT22;6756;51.354;15.754;2023-02-22T16:12:30;8.50;99.90
13375;DHT22;6756;51.354;15.754;2023-02-22T16:16:37;8.40;99.90
13375;DHT22;6756;51.354;15.754;2023-02-22T16:20:42;8.30;99.90
13375;DHT22;6756;51.354;15.754;2023-02-22T16:24:43;8.20;99.90
13375;DHT22;6756;51.354;15.754;2023-02-22T16:32:53;8.00;99.90
13375;DHT22;6756;51.354;15.754;2023-02-22T16:36:55;7.90;99.90
13375;DHT22;6756;51.354;15.754;2023-02-22T16:40:56;7.80;99.90
13375;DHT22;6756;51.354;15.754;2023-02-22T16:44:57;7.60;1.00
13375;DHT22;6756;51.354;15.754;2023-02-22T16:48:58;7.50;1.00
13375;DHT22;6756;51.354;15.754;2023-02-22T16:53:02;7.30;1.00
13375;DHT22;6756;51.354;15.754;2023-02-22T16:57:03;7.10;1.00
13375;DHT22;6756;51.354;15.754;2023-02-22T17:01:05;7.00;1.00
13375;DHT22;6756;51.354;15.754;2023-02-22T17:05:08;6.90;37.60
13375;DHT22;6756;51.354;15.754;2023-02-22T17:09:12;6.80;99.90
13375;DHT22;6756;51.354;15.754;2023-02-22T17:13:14;6.80;99.90
13375;DHT22;6756;51.354;15.754;2023-02-22T17:17:15;6.80;99.90
13375;DHT22;6756;51.354;15.754;2023-02-22T17:21:16;6.80;99.90
13375;DHT22;6756;51.354;15.754;2023-02-22T17:25:20;6.80;99.90
13375;DHT22;6756;51.354;15.754;2023-02-22T17:29:21;6.70;99.90
13375;DHT22;6756;51.354;15.754;2023-02-22T17:33:23;6.70;99.90
13375;DHT22;6756;51.354;15.754;2023-02-22T17:37:27;6.70;55.00
13375;DHT22;6756;51.354;15.754;2023-02-22T17:41:28;6.70;1.00
13375;DHT22;6756;51.354;15.754;2023-02-22T17:45:29;6.70;1.00
13375;DHT22;6756;51.354;15.754;2023-02-22T17:49:30;6.60;1.00
13375;DHT22;6756;51.354;15.754;2023-02-22T17:53:32;6.50;1.00
13375;DHT22;6756;51.354;15.754;2023-02-22T17:57:34;6.50;99.90
13375;DHT22;6756;51.354;15.754;2023-02-22T18:01:35;6.50;99.90
13375;DHT22;6756;51.354;15.754;2023-02-22T18:05:42;6.40;99.90
13375;DHT22;6756;51.354;15.754;2023-02-22T18:09:43;6.30;99.90
13375;DHT22;6756;51.354;15.754;2023-02-22T18:13:44;6.20;99.90
13375;DHT22;6756;51.354;15.754;2023-02-22T18:17:46;6.10;99.90
13375;DHT22;6756;51.354;15.754;2023-02-22T18:21:47;6.00;99.90
13375;DHT22;6756;51.354;15.754;2023-02-22T18:25:50;5.90;99.90
13375;DHT22;6756;51.354;15.754;2023-02-22T18:29:51;5.80;99.90
13375;DHT22;6756;51.354;15.754;2023-02-22T18:33:52;5.70;99.90
13375;DHT22;6756;51.354;15.754;2023-02-22T18:37:53;5.60;1.00
13375;DHT22;6756;51.354;15.754;2023-02-22T18:41:54;5.50;1.00
13375;DHT22;6756;51.354;15.754;2023-02-22T18:46:13;5.50;1.00
13375;DHT22;6756;51.354;15.754;2023-02-22T18:50:15;5.40;1.00
13375;DHT22;6756;51.354;15.754;2023-02-22T18:54:18;5.20;1.00
13375;DHT22;6756;51.354;15.754;2023-02-22T18:58:19;5.10;1.00
13375;DHT22;6756;51.354;15.754;2023-02-22T19:02:20;5.00;1.00
13375;DHT22;6756;51.354;15.754;2023-02-22T19:06:21;4.90;1.00
13375;DHT22;6756;51.354;15.754;2023-02-22T19:10:22;4.80;1.00
13375;DHT22;6756;51.354;15.754;2023-02-22T19:14:23;4.70;1.00
13375;DHT22;6756;51.354;15.754;2023-02-22T19:18:24;4.60;1.00
13375;DHT22;6756;51.354;15.754;2023-02-22T19:22:25;4.60;20.00
13375;DHT22;6756;51.354;15.754;2023-02-22T19:26:27;4.50;61.00
13375;DHT22;6756;51.354;15.754;2023-02-22T19:30:28;4.40;99.90
13375;DHT22;6756;51.354;15.754;2023-02-22T19:34:29;4.40;99.90
13375;DHT22;6756;51.354;15.754;2023-02-22T19:38:30;4.30;99.90
13375;DHT22;6756;51.354;15.754;2023-02-22T19:42:31;4.20;99.90
13375;DHT22;6756;51.354;15.754;2023-02-22T19:46:33;4.20;99.90
13375;DHT22;6756;51.354;15.754;2023-02-22T19:50:34;4.20;99.90
13375;DHT22;6756;51.354;15.754;2023-02-22T19:54:34;4.10;99.90
13375;DHT22;6756;51.354;15.754;2023-02-22T19:58:40;4.00;99.90
13375;DHT22;6756;51.354;15.754;2023-02-22T20:02:41;4.00;99.90
13375;DHT22;6756;51.354;15.754;2023-02-22T20:06:44;4.00;99.90
13375;DHT22;6756;51.354;15.754;2023-02-22T20:10:45;4.00;1.00
13375;DHT22;6756;51.354;15.754;2023-02-22T20:14:46;3.90;1.00
13375;DHT22;6756;51.354;15.754;2023-02-22T20:18:47;3.90;1.00
13375;DHT22;6756;51.354;15.754;2023-02-22T20:22:49;3.90;1.00
13375;DHT22;6756;51.354;15.754;2023-02-22T20:26:50;3.80;1.00
13375;DHT22;6756;51.354;15.754;2023-02-22T20:30:55;3.80;1.00
13375;DHT22;6756;51.354;15.754;2023-02-22T20:34:55;3.80;1.00
13375;DHT22;6756;51.354;15.754;2023-02-22T20:38:58;3.70;1.00
13375;DHT22;6756;51.354;15.754;2023-02-22T20:42:59;3.70;43.10
13375;DHT22;6756;51.354;15.754;2023-02-22T20:47:00;3.70;18.00
13375;DHT22;6756;51.354;15.754;2023-02-22T20:51:07;3.70;47.00
13375;DHT22;6756;51.354;15.754;2023-02-22T20:55:08;3.70;44.70
13375;DHT22;6756;51.354;15.754;2023-02-22T20:59:12;3.60;99.90
13375;DHT22;6756;51.354;15.754;2023-02-22T21:03:14;3.60;99.90
13375;DHT22;6756;51.354;15.754;2023-02-22T21:07:15;3.50;99.90
13375;DHT22;6756;51.354;15.754;2023-02-22T21:11:17;3.50;99.90
13375;DHT22;6756;51.354;15.754;2023-02-22T21:15:18;3.50;1.00
13375;DHT22;6756;51.354;15.754;2023-02-22T21:19:19;3.40;1.00
13375;DHT22;6756;51.354;15.754;2023-02-22T21:23:26;3.40;1.00
13375;DHT22;6756;51.354;15.754;2023-02-22T21:27:27;3.30;94.40
13375;DHT22;6756;51.354;15.754;2023-02-22T21:31:28;3.30;99.90
13375;DHT22;6756;51.354;15.754;2023-02-22T21:35:29;3.20;99.90
13375;DHT22;6756;51.354;15.754;2023-02-22T21:39:30;3.20;1.00
13375;DHT22;6756;51.354;15.754;2023-02-22T21:43:31;3.10;99.90
13375;DHT22;6756;51.354;15.754;2023-02-22T21:47:32;3.10;99.90
13375;DHT22;6756;51.354;15.754;2023-02-22T21:51:35;3.10;74.40
13375;DHT22;6756;51.354;15.754;2023-02-22T21:55:37;3.00;99.90
13375;DHT22;6756;51.354;15.754;2023-02-22T21:59:38;3.00;99.90
13375;DHT22;6756;51.354;15.754;2023-02-22T22:03:38;2.90;1.00
13375;DHT22;6756;51.354;15.754;2023-02-22T22:07:39;2.90;24.70
13375;DHT22;6756;51.354;15.754;2023-02-22T22:11:52;2.90;99.90
13375;DHT22;6756;51.354;15.754;2023-02-22T22:15:53;2.80;1.00
13375;DHT22;6756;51.354;15.754;2023-02-22T22:19:54;2.80;1.00
13375;DHT22;6756;51.354;15.754;2023-02-22T22:23:55;2.70;1.00
13375;DHT22;6756;51.354;15.754;2023-02-22T22:27:56;2.70;99.90
13375;DHT22;6756;51.354;15.754;2023-02-22T22:31:57;2.60;1.00
13375;DHT22;6756;51.354;15.754;2023-02-22T22:35:58;2.60;1.00
13375;DHT22;6756;51.354;15.754;2023-02-22T22:39:59;2.50;99.90
13375;DHT22;6756;51.354;15.754;2023-02-22T22:44:03;2.50;99.90
13375;DHT22;6756;51.354;15.754;2023-02-22T22:48:05;2.50;99.90
13375;DHT22;6756;51.354;15.754;2023-02-22T22:52:06;2.40;99.90
13375;DHT22;6756;51.354;15.754;2023-02-22T22:56:14;2.40;1.00
13375;DHT22;6756;51.354;15.754;2023-02-22T23:00:18;2.30;1.00
13375;DHT22;6756;51.354;15.754;2023-02-22T23:04:26;2.30;99.90
13375;DHT22;6756;51.354;15.754;2023-02-22T23:08:27;2.30;1.00
13375;DHT22;6756;51.354;15.754;2023-02-22T23:12:28;2.30;99.90
13375;DHT22;6756;51.354;15.754;2023-02-22T23:16:31;2.20;99.90
13375;DHT22;6756;51.354;15.754;2023-02-22T23:20:32;2.20;1.00
13375;DHT22;6756;51.354;15.754;2023-02-22T23:24:38;2.20;8.80
13375;DHT22;6756;51.354;15.754;2023-02-22T23:28:39;2.30;99.90
13375;DHT22;6756;51.354;15.754;2023-02-22T23:32:41;2.30;1.00
13375;DHT22;6756;51.354;15.754;2023-02-22T23:36:42;2.30;99.90
13375;DHT22;6756;51.354;15.754;2023-02-22T23:40:49;2.30;99.90
13375;DHT22;6756;51.354;15.754;2023-02-22T23:44:53;2.30;99.90
13375;DHT22;6756;51.354;15.754;2023-02-22T23:48:54;2.20;99.90
13375;DHT22;6756;51.354;15.754;2023-02-22T23:53:01;2.00;99.90
13375;DHT22;6756;51.354;15.754;2023-02-22T23:57:03;1.90;1.00
